Time;durP1;ratioP1;P1;durP2;ratioP2;P2;SDS_P1;SDS_P2;PMS_P1;PMS_P2;Temp;Humidity;BMP_temperature;BMP_pressure;BME280_temperature;BME280_humidity;BME280_pressure;Samples;Min_cycle;Max_cycle;Signal;HPM_P1;HPM_P2
2022/10/02 00:02:28;;;;;;;13.23;2.53;;;;;;;;;;5052103;28;20037;-65
2022/10/02 00:05:06;;;;;;;10.75;2.25;;;;;;;;;;5050797;28;20386;-65
2022/10/02 00:07:35;;;;;;;11.23;2.30;;;;;;;;;;5049531;28;20120;-65
2022/10/02 00:10:03;;;;;;;10.90;2.67;;;;;;;;;;5051434;28;20037;-72
2022/10/02 00:12:30;;;;;;;11.05;2.33;;;;;;;;;;5050279;28;20142;-66
2022/10/02 00:15:03;;;;;;;10.38;2.03;;;;;;;;;;5028517;28;20060;-66
2022/10/02 00:17:32;;;;;;;11.60;2.10;;;;;;;;;;5049280;28;20047;-66
2022/10/02 00:19:59;;;;;;;8.90;2.35;;;;;;;;;;5050145;28;20048;-66
2022/10/02 00:22:40;;;;;;;7.97;1.98;;;;;;;;;;5050185;28;20037;-66
2022/10/02 00:25:06;;;;;;;10.65;2.00;;;;;;;;;;5050522;28;20078;-65
2022/10/02 00:27:42;;;;;;;9.13;2.13;;;;;;;;;;5044566;28;20529;-66
2022/10/02 00:30:11;;;;;;;11.93;2.38;;;;;;;;;;5050574;28;20215;-65
2022/10/02 00:32:40;;;;;;;8.32;2.30;;;;;;;;;;5050926;28;20079;-65
2022/10/02 00:35:21;;;;;;;11.77;2.35;;;;;;;;;;5051274;28;20048;-65
2022/10/02 00:37:50;;;;;;;9.75;2.40;;;;;;;;;;5050102;28;20114;-66
2022/10/02 00:40:32;;;;;;;10.48;2.40;;;;;;;;;;5050944;28;20482;-66
2022/10/02 00:43:16;;;;;;;10.73;2.22;;;;;;;;;;5048858;28;20110;-66
2022/10/02 00:46:08;;;;;;;11.35;2.40;;;;;;;;;;5050830;28;20155;-65
2022/10/02 00:48:37;;;;;;;8.02;2.10;;;;;;;;;;5050743;28;20058;-66
2022/10/02 00:51:22;;;;;;;10.25;2.17;;;;;;;;;;5050838;28;20095;-65
2022/10/02 00:54:00;;;;;;;12.15;2.03;;;;;;;;;;5050382;28;20040;-66
2022/10/02 00:56:42;;;;;;;8.45;1.88;;;;;;;;;;5050569;28;20180;-66
2022/10/02 00:59:28;;;;;;;10.02;2.05;;;;;;;;;;5049274;28;20037;-66
2022/10/02 01:02:00;;;;;;;13.90;1.90;;;;;;;;;;5027314;28;20046;-65
2022/10/02 01:04:36;;;;;;;9.30;1.85;;;;;;;;;;5047225;28;20037;-65
2022/10/02 01:07:04;;;;;;;10.13;1.73;;;;;;;;;;5046032;28;20077;-66
2022/10/02 01:09:30;;;;;;;10.02;1.73;;;;;;;;;;5049056;28;20048;-72
2022/10/02 01:11:57;;;;;;;7.80;1.52;;;;;;;;;;5051313;28;20053;-72
2022/10/02 01:14:36;;;;;;;10.60;1.60;;;;;;;;;;5047652;28;20037;-72
2022/10/02 01:17:03;;;;;;;12.10;1.85;;;;;;;;;;5034203;28;20056;-73
2022/10/02 01:19:35;;;;;;;8.80;1.80;;;;;;;;;;5050830;28;20033;-73
2022/10/02 01:22:10;;;;;;;11.75;1.88;;;;;;;;;;5051180;28;20047;-73
2022/10/02 01:24:47;;;;;;;11.95;1.92;;;;;;;;;;5055213;28;20047;-73
2022/10/02 01:27:13;;;;;;;13.02;1.95;;;;;;;;;;5051952;28;20041;-72
2022/10/02 01:29:39;;;;;;;10.48;1.70;;;;;;;;;;5053002;28;20116;-72
2022/10/02 01:32:05;;;;;;;8.00;1.70;;;;;;;;;;5047523;28;20120;-73
2022/10/02 01:34:32;;;;;;;13.80;1.88;;;;;;;;;;5054047;28;20037;-73
2022/10/02 01:36:58;;;;;;;14.05;2.33;;;;;;;;;;5051237;28;20072;-73
2022/10/02 01:39:25;;;;;;;10.25;1.55;;;;;;;;;;5054068;28;20063;-73
2022/10/02 01:41:54;;;;;;;10.25;1.70;;;;;;;;;;5054985;28;20119;-72
2022/10/02 01:44:20;;;;;;;14.32;2.15;;;;;;;;;;5047758;28;20441;-72
2022/10/02 01:46:46;;;;;;;8.38;2.13;;;;;;;;;;5047862;28;20040;-73
2022/10/02 01:49:12;;;;;;;13.57;2.67;;;;;;;;;;5052608;28;20082;-73
2022/10/02 01:51:44;;;;;;;12.35;2.10;;;;;;;;;;5042814;28;20048;-72
2022/10/02 01:54:29;;;;;;;9.88;2.83;;;;;;;;;;5055191;28;20107;-72
2022/10/02 01:56:55;;;;;;;10.45;2.47;;;;;;;;;;5045127;28;20045;-73
2022/10/02 01:59:27;;;;;;;8.45;2.42;;;;;;;;;;5054108;28;20398;-72
2022/10/02 02:02:08;;;;;;;12.30;2.20;;;;;;;;;;5051691;28;20045;-73
2022/10/02 02:04:45;;;;;;;14.15;2.47;;;;;;;;;;5046837;28;20033;-72
2022/10/02 02:07:24;;;;;;;13.07;2.50;;;;;;;;;;5052486;28;20041;-72
2022/10/02 02:10:09;;;;;;;12.63;2.63;;;;;;;;;;5053279;28;20124;-72
2022/10/02 02:12:52;;;;;;;15.50;2.55;;;;;;;;;;5053234;28;20056;-66
2022/10/02 02:15:29;;;;;;;16.70;2.60;;;;;;;;;;5045982;28;20039;-66
2022/10/02 02:18:16;;;;;;;13.48;2.40;;;;;;;;;;5052710;28;20132;-66
2022/10/02 02:20:44;;;;;;;13.10;2.47;;;;;;;;;;5056259;28;20036;-72
2022/10/02 02:23:12;;;;;;;15.68;3.17;;;;;;;;;;5053290;28;20044;-73
2022/10/02 02:25:40;;;;;;;16.90;3.30;;;;;;;;;;5053905;28;20087;-73
2022/10/02 02:28:09;;;;;;;11.85;2.60;;;;;;;;;;5047426;28;20422;-66
2022/10/02 02:30:37;;;;;;;12.65;2.50;;;;;;;;;;5052569;28;20072;-66
2022/10/02 02:33:08;;;;;;;10.30;2.92;;;;;;;;;;5050775;28;20064;-66
2022/10/02 02:35:41;;;;;;;21.60;2.83;;;;;;;;;;5049071;28;20041;-65
2022/10/02 02:38:13;;;;;;;15.73;3.10;;;;;;;;;;5053141;28;20044;-66
2022/10/02 02:40:42;;;;;;;14.15;2.47;;;;;;;;;;5052047;28;20102;-66
2022/10/02 02:43:12;;;;;;;16.63;2.63;;;;;;;;;;5051991;28;20048;-66
2022/10/02 02:45:43;;;;;;;10.50;2.83;;;;;;;;;;5052406;28;20510;-66
2022/10/02 02:48:12;;;;;;;12.13;2.72;;;;;;;;;;5051749;28;20114;-72
2022/10/02 02:50:42;;;;;;;10.57;2.50;;;;;;;;;;5067227;28;20115;-73
2022/10/02 02:53:28;;;;;;;14.75;2.30;;;;;;;;;;5052324;28;20036;-65
2022/10/02 02:55:59;;;;;;;14.82;2.28;;;;;;;;;;5048728;28;20091;-65
2022/10/02 02:58:31;;;;;;;9.77;2.22;;;;;;;;;;5052626;28;20032;-66
2022/10/02 03:00:57;;;;;;;14.32;2.00;;;;;;;;;;5050619;28;20048;-65
2022/10/02 03:03:23;;;;;;;18.02;2.60;;;;;;;;;;5052089;28;20389;-65
2022/10/02 03:05:52;;;;;;;10.75;2.22;;;;;;;;;;5051753;28;20052;-65
2022/10/02 03:08:22;;;;;;;12.98;2.03;;;;;;;;;;5051951;28;20081;-73
2022/10/02 03:10:48;;;;;;;12.00;1.92;;;;;;;;;;5052027;28;20045;-73
2022/10/02 03:13:33;;;;;;;10.98;2.28;;;;;;;;;;5053215;28;20402;-73
2022/10/02 03:16:11;;;;;;;15.38;2.13;;;;;;;;;;5053186;28;20370;-73
2022/10/02 03:18:50;;;;;;;8.43;1.95;;;;;;;;;;5060205;28;20037;-73
2022/10/02 03:21:22;;;;;;;14.15;2.25;;;;;;;;;;5050997;28;20545;-73
2022/10/02 03:24:03;;;;;;;8.98;1.67;;;;;;;;;;5053138;28;20040;-73
2022/10/02 03:26:34;;;;;;;12.40;2.10;;;;;;;;;;5050786;28;20076;-73
2022/10/02 03:29:02;;;;;;;12.55;1.90;;;;;;;;;;5052185;28;20037;-73
2022/10/02 03:31:30;;;;;;;12.95;2.35;;;;;;;;;;5051577;28;20041;-73
2022/10/02 03:33:58;;;;;;;9.73;1.92;;;;;;;;;;5044172;28;20119;-73
2022/10/02 03:36:24;;;;;;;9.82;1.80;;;;;;;;;;5052453;28;20052;-73
2022/10/02 03:38:52;;;;;;;20.90;2.50;;;;;;;;;;5040779;28;20037;-73
2022/10/02 03:41:18;;;;;;;13.10;2.05;;;;;;;;;;5043816;28;20116;-73
2022/10/02 03:43:44;;;;;;;8.98;1.65;;;;;;;;;;5052323;28;20068;-72
2022/10/02 03:46:11;;;;;;;9.93;1.92;;;;;;;;;;5052957;28;20041;-73
2022/10/02 03:48:37;;;;;;;14.10;2.00;;;;;;;;;;5051188;28;20060;-73
2022/10/02 03:51:03;;;;;;;10.60;2.17;;;;;;;;;;5051991;28;20051;-73
2022/10/02 03:53:30;;;;;;;8.35;2.03;;;;;;;;;;5052066;28;20080;-73
2022/10/02 03:55:59;;;;;;;12.35;2.13;;;;;;;;;;5052246;28;20564;-73
2022/10/02 03:58:25;;;;;;;8.85;2.00;;;;;;;;;;5052000;28;20094;-73
2022/10/02 04:00:57;;;;;;;20.63;2.75;;;;;;;;;;5050319;28;20037;-73
2022/10/02 04:03:28;;;;;;;12.93;2.30;;;;;;;;;;5051737;28;20047;-73
2022/10/02 04:06:15;;;;;;;13.18;2.00;;;;;;;;;;5048633;28;20040;-73
2022/10/02 04:08:49;;;;;;;14.45;1.85;;;;;;;;;;5051648;28;20701;-73
2022/10/02 04:11:17;;;;;;;12.88;2.35;;;;;;;;;;5044611;28;20053;-72
2022/10/02 04:13:49;;;;;;;18.02;3.40;;;;;;;;;;5048965;28;20115;-73
2022/10/02 04:16:24;;;;;;;13.48;1.92;;;;;;;;;;5051044;28;20049;-73
2022/10/02 04:18:54;;;;;;;11.32;2.53;;;;;;;;;;5051949;28;20041;-73
2022/10/02 04:21:36;;;;;;;8.05;1.95;;;;;;;;;;5049460;28;20390;-73
2022/10/02 04:24:07;;;;;;;13.30;2.15;;;;;;;;;;5048385;28;20025;-73
2022/10/02 04:26:35;;;;;;;16.73;2.45;;;;;;;;;;5052122;28;20481;-73
2022/10/02 04:29:06;;;;;;;16.95;2.42;;;;;;;;;;5051984;28;20110;-73
2022/10/02 04:31:32;;;;;;;13.90;2.50;;;;;;;;;;5062394;28;20478;-73
2022/10/02 04:34:00;;;;;;;12.10;2.22;;;;;;;;;;5050517;28;20103;-73
2022/10/02 04:36:26;;;;;;;15.32;2.10;;;;;;;;;;5051785;28;20044;-73
2022/10/02 04:39:10;;;;;;;14.32;2.00;;;;;;;;;;5051685;28;20037;-73
2022/10/02 04:41:39;;;;;;;12.85;2.00;;;;;;;;;;5051549;28;20029;-73
2022/10/02 04:44:18;;;;;;;11.65;2.10;;;;;;;;;;5051801;28;20466;-73
2022/10/02 04:46:58;;;;;;;13.02;2.58;;;;;;;;;;5049700;28;20029;-74
2022/10/02 04:49:43;;;;;;;17.95;2.75;;;;;;;;;;5050033;28;20041;-74
2022/10/02 04:52:09;;;;;;;14.75;2.63;;;;;;;;;;5044999;28;20520;-73
2022/10/02 04:54:44;;;;;;;12.02;2.00;;;;;;;;;;5051115;28;20048;-73
2022/10/02 04:57:16;;;;;;;16.70;3.50;;;;;;;;;;5052030;28;20037;-73
2022/10/02 05:00:01;;;;;;;14.68;2.58;;;;;;;;;;5055669;28;20307;-73
2022/10/02 05:02:41;;;;;;;12.90;2.10;;;;;;;;;;5054093;28;20044;-73
2022/10/02 05:05:07;;;;;;;11.90;2.13;;;;;;;;;;5053318;28;20485;-73
2022/10/02 05:07:33;;;;;;;13.35;2.42;;;;;;;;;;5055279;28;20086;-73
2022/10/02 05:10:15;;;;;;;15.20;2.40;;;;;;;;;;5036638;28;20063;-73
2022/10/02 05:12:58;;;;;;;17.40;2.50;;;;;;;;;;5055852;28;20555;-73
2022/10/02 05:15:27;;;;;;;16.05;2.67;;;;;;;;;;5050080;28;20544;-66
2022/10/02 05:18:07;;;;;;;16.90;2.60;;;;;;;;;;5053892;28;20263;-66
2022/10/02 05:20:37;;;;;;;13.50;2.25;;;;;;;;;;5054406;28;20037;-73
2022/10/02 05:23:03;;;;;;;15.88;2.50;;;;;;;;;;5053412;28;20037;-73
2022/10/02 05:25:33;;;;;;;16.75;2.30;;;;;;;;;;5053962;28;20120;-66
2022/10/02 05:28:26;;;;;;;11.15;2.05;;;;;;;;;;5054112;28;20485;-66
2022/10/02 05:31:06;;;;;;;15.70;2.38;;;;;;;;;;5043108;28;20059;-73
2022/10/02 05:33:44;;;;;;;19.45;2.60;;;;;;;;;;5053671;28;20040;-73
2022/10/02 05:36:29;;;;;;;14.82;2.45;;;;;;;;;;5055621;28;20084;-73
2022/10/02 05:39:01;;;;;;;11.80;2.45;;;;;;;;;;5051800;28;20449;-73
2022/10/02 05:41:47;;;;;;;13.88;2.53;;;;;;;;;;5054161;28;20052;-73
2022/10/02 05:44:34;;;;;;;21.80;3.10;;;;;;;;;;5047651;28;20094;-74
2022/10/02 05:47:09;;;;;;;15.25;2.85;;;;;;;;;;5055741;28;20385;-73
2022/10/02 05:49:40;;;;;;;22.10;2.97;;;;;;;;;;5054489;28;20060;-73
2022/10/02 05:52:11;;;;;;;14.38;2.70;;;;;;;;;;5054603;28;20045;-73
2022/10/02 05:54:51;;;;;;;20.05;3.13;;;;;;;;;;5054297;28;20208;-73
2022/10/02 05:57:25;;;;;;;18.38;3.25;;;;;;;;;;5055257;28;20072;-73
2022/10/02 06:00:10;;;;;;;10.45;2.80;;;;;;;;;;5041916;28;20512;-73
2022/10/02 06:02:47;;;;;;;15.98;2.45;;;;;;;;;;5054623;28;20044;-73
2022/10/02 06:05:24;;;;;;;11.98;2.33;;;;;;;;;;5055121;28;20087;-73
2022/10/02 06:07:51;;;;;;;14.73;2.38;;;;;;;;;;5055212;28;20478;-73
2022/10/02 06:10:19;;;;;;;12.77;3.22;;;;;;;;;;5053567;28;20505;-72
2022/10/02 06:13:08;;;;;;;16.85;3.05;;;;;;;;;;5055061;28;20052;-73
2022/10/02 06:15:41;;;;;;;13.38;2.47;;;;;;;;;;5034875;28;20049;-73
2022/10/02 06:18:17;;;;;;;16.00;2.20;;;;;;;;;;5054726;28;20041;-73
2022/10/02 06:20:50;;;;;;;11.25;1.92;;;;;;;;;;5053497;28;20398;-74
2022/10/02 06:23:19;;;;;;;12.57;2.03;;;;;;;;;;5054342;28;20163;-73
2022/10/02 06:25:48;;;;;;;9.88;2.00;;;;;;;;;;5055055;28;20060;-73
2022/10/02 06:28:17;;;;;;;14.18;2.20;;;;;;;;;;5054884;28;20390;-73
2022/10/02 06:30:45;;;;;;;12.25;2.28;;;;;;;;;;5053400;28;20041;-73
2022/10/02 06:33:11;;;;;;;14.35;2.10;;;;;;;;;;5053952;28;20551;-73
2022/10/02 06:35:51;;;;;;;10.13;2.10;;;;;;;;;;5053173;28;20044;-74
2022/10/02 06:38:18;;;;;;;11.38;2.30;;;;;;;;;;5049796;28;20041;-74
2022/10/02 06:40:50;;;;;;;11.77;2.83;;;;;;;;;;5054357;28;20099;-74
2022/10/02 06:43:27;;;;;;;12.68;2.42;;;;;;;;;;5049646;28;20059;-74
2022/10/02 06:45:57;;;;;;;8.35;1.70;;;;;;;;;;5053843;28;20520;-74
2022/10/02 06:48:37;;;;;;;14.35;2.17;;;;;;;;;;5047513;28;20048;-74
2022/10/02 06:51:29;;;;;;;9.60;1.70;;;;;;;;;;5036035;28;20099;-74
2022/10/02 06:53:55;;;;;;;12.02;2.35;;;;;;;;;;5034338;28;20084;-74
2022/10/02 06:56:21;;;;;;;7.85;1.85;;;;;;;;;;5053807;28;20037;-74
2022/10/02 06:58:51;;;;;;;11.70;2.33;;;;;;;;;;5050619;28;20044;-74
2022/10/02 07:01:29;;;;;;;7.85;1.70;;;;;;;;;;5053376;28;20051;-74
2022/10/02 07:04:15;;;;;;;10.32;1.77;;;;;;;;;;5054233;28;20497;-74
2022/10/02 07:06:47;;;;;;;9.98;1.85;;;;;;;;;;5040624;28;20456;-74
2022/10/02 07:09:31;;;;;;;14.48;1.92;;;;;;;;;;5052716;28;20049;-74
2022/10/02 07:12:04;;;;;;;10.05;1.58;;;;;;;;;;5041119;28;20052;-74
2022/10/02 07:14:37;;;;;;;13.70;2.17;;;;;;;;;;5052402;28;20044;-67
2022/10/02 07:17:08;;;;;;;11.70;2.00;;;;;;;;;;5052780;28;20055;-66
2022/10/02 07:19:51;;;;;;;10.75;1.90;;;;;;;;;;5052330;28;20128;-66
2022/10/02 07:22:37;;;;;;;11.00;1.70;;;;;;;;;;5052604;28;20033;-65
2022/10/02 07:25:06;;;;;;;14.30;2.08;;;;;;;;;;5053100;28;20119;-66
2022/10/02 07:27:32;;;;;;;12.95;2.33;;;;;;;;;;5051368;28;20044;-65
2022/10/02 07:30:03;;;;;;;12.20;1.80;;;;;;;;;;5052446;28;20037;-65
2022/10/02 07:32:41;;;;;;;11.68;2.22;;;;;;;;;;5051107;28;20045;-66
2022/10/02 07:35:07;;;;;;;13.25;1.90;;;;;;;;;;5050759;28;20033;-72
2022/10/02 07:37:52;;;;;;;11.55;2.00;;;;;;;;;;5051564;28;20065;-73
2022/10/02 07:40:36;;;;;;;10.65;1.85;;;;;;;;;;5051382;28;20083;-66
2022/10/02 07:43:05;;;;;;;10.88;1.95;;;;;;;;;;5050939;28;20033;-66
2022/10/02 07:45:54;;;;;;;11.30;1.85;;;;;;;;;;5050688;28;20039;-66
2022/10/02 07:48:24;;;;;;;8.15;1.63;;;;;;;;;;5050138;28;20493;-66
2022/10/02 07:50:50;;;;;;;11.30;1.92;;;;;;;;;;5051902;28;20052;-66
2022/10/02 07:53:16;;;;;;;12.88;2.10;;;;;;;;;;5052416;28;20433;-66
2022/10/02 07:55:44;;;;;;;10.85;2.10;;;;;;;;;;5051776;28;20048;-66
2022/10/02 07:58:18;;;;;;;11.00;1.75;;;;;;;;;;5052522;28;20393;-66
2022/10/02 08:00:51;;;;;;;8.23;1.90;;;;;;;;;;5049778;28;20041;-66
2022/10/02 08:03:19;;;;;;;9.50;1.80;;;;;;;;;;5039294;28;20119;-65
2022/10/02 08:05:47;;;;;;;8.48;2.17;;;;;;;;;;5051838;28;20130;-66
2022/10/02 08:08:48;;;;;;;10.80;2.03;;;;;;;;;;5052511;28;20044;-66
2022/10/02 08:11:29;;;;;;;9.77;1.55;;;;;;;;;;5018741;28;20518;-66
2022/10/02 08:14:06;;;;;;;8.75;1.83;;;;;;;;;;5046657;28;20506;-66
2022/10/02 08:16:41;;;;;;;10.10;1.55;;;;;;;;;;5052255;28;20041;-66
2022/10/02 08:19:11;;;;;;;9.38;1.67;;;;;;;;;;5052070;28;20049;-66
2022/10/02 08:21:40;;;;;;;9.10;1.70;;;;;;;;;;5040215;28;20040;-65
2022/10/02 08:24:12;;;;;;;9.30;1.60;;;;;;;;;;5051038;28;20041;-66
2022/10/02 08:26:50;;;;;;;10.80;1.60;;;;;;;;;;5050770;28;20040;-66
2022/10/02 08:29:23;;;;;;;12.68;1.88;;;;;;;;;;5065869;28;20053;-66
2022/10/02 08:31:52;;;;;;;10.52;1.65;;;;;;;;;;5050573;28;20041;-66
2022/10/02 08:34:18;;;;;;;9.73;1.67;;;;;;;;;;5037176;28;20036;-66
2022/10/02 08:37:00;;;;;;;8.35;1.77;;;;;;;;;;5053466;28;20041;-66
2022/10/02 08:39:27;;;;;;;13.27;1.95;;;;;;;;;;5052705;28;20048;-66
2022/10/02 08:41:53;;;;;;;9.50;2.25;;;;;;;;;;5055516;28;20131;-66
2022/10/02 08:44:41;;;;;;;9.98;1.70;;;;;;;;;;5055744;28;20033;-66
2022/10/02 08:47:09;;;;;;;12.35;2.15;;;;;;;;;;5055726;28;20504;-69
2022/10/02 08:49:35;;;;;;;13.10;1.63;;;;;;;;;;5056077;28;20540;-68
2022/10/02 08:52:20;;;;;;;9.65;2.00;;;;;;;;;;5055649;28;20474;-69
2022/10/02 08:55:05;;;;;;;13.52;2.30;;;;;;;;;;5052937;28;20067;-68
2022/10/02 08:57:42;;;;;;;8.70;1.98;;;;;;;;;;5054162;28;20037;-69
2022/10/02 09:00:21;;;;;;;10.07;2.00;;;;;;;;;;5053892;28;20418;-69
2022/10/02 09:03:05;;;;;;;10.05;1.98;;;;;;;;;;5053661;28;20047;-68
2022/10/02 09:05:38;;;;;;;9.52;1.85;;;;;;;;;;5055519;28;20102;-68
2022/10/02 09:08:08;;;;;;;9.77;1.80;;;;;;;;;;5055349;28;20076;-68
2022/10/02 09:10:46;;;;;;;10.52;2.00;;;;;;;;;;5054935;28;20470;-68
2022/10/02 09:13:18;;;;;;;10.50;1.90;;;;;;;;;;5055094;28;20036;-69
2022/10/02 09:15:53;;;;;;;11.50;2.20;;;;;;;;;;5053785;28;20371;-69
2022/10/02 09:18:28;;;;;;;8.82;2.20;;;;;;;;;;5055176;28;20037;-68
2022/10/02 09:20:54;;;;;;;10.60;1.92;;;;;;;;;;5054911;28;20047;-69
2022/10/02 09:23:26;;;;;;;7.82;2.22;;;;;;;;;;5054588;28;20504;-68
2022/10/02 09:25:58;;;;;;;11.68;2.10;;;;;;;;;;5061855;28;20044;-68
2022/10/02 09:28:42;;;;;;;9.98;1.83;;;;;;;;;;5060733;28;20442;-68
2022/10/02 09:31:28;;;;;;;11.95;1.90;;;;;;;;;;5054655;28;20037;-68
2022/10/02 09:33:54;;;;;;;8.93;2.10;;;;;;;;;;5042633;28;20045;-69
2022/10/02 09:36:40;;;;;;;8.57;1.52;;;;;;;;;;5055108;28;20037;-69
2022/10/02 09:39:25;;;;;;;13.10;2.55;;;;;;;;;;5043647;28;20067;-68
2022/10/02 09:42:10;;;;;;;6.50;1.90;;;;;;;;;;5048093;28;20051;-68
2022/10/02 09:44:36;;;;;;;11.63;2.05;;;;;;;;;;5069174;28;20296;-69
2022/10/02 09:47:08;;;;;;;9.80;1.88;;;;;;;;;;5054119;28;20126;-69
2022/10/02 09:49:34;;;;;;;7.03;1.55;;;;;;;;;;5053321;28;20037;-69
2022/10/02 09:52:20;;;;;;;13.02;2.60;;;;;;;;;;5053621;28;20044;-69
2022/10/02 09:55:01;;;;;;;5.85;1.60;;;;;;;;;;5041196;28;20133;-69
2022/10/02 09:57:46;;;;;;;12.77;2.03;;;;;;;;;;5052553;28;20044;-68
2022/10/02 10:00:18;;;;;;;8.02;1.75;;;;;;;;;;5052210;28;20401;-69
2022/10/02 10:03:04;;;;;;;8.52;1.63;;;;;;;;;;5053079;28;20398;-68
2022/10/02 10:05:39;;;;;;;11.23;2.13;;;;;;;;;;5054730;28;20048;-69
2022/10/02 10:08:22;;;;;;;7.25;2.00;;;;;;;;;;5050647;28;20033;-68
2022/10/02 10:10:48;;;;;;;8.10;1.70;;;;;;;;;;5045564;28;20501;-68
2022/10/02 10:13:21;;;;;;;8.38;1.80;;;;;;;;;;5053730;28;20044;-66
2022/10/02 10:15:56;;;;;;;9.23;2.00;;;;;;;;;;5053978;28;20132;-66
2022/10/02 10:18:25;;;;;;;8.30;1.70;;;;;;;;;;5054007;28;20037;-67
2022/10/02 10:20:53;;;;;;;6.70;2.17;;;;;;;;;;5052767;28;20525;-66
2022/10/02 10:23:30;;;;;;;8.48;1.95;;;;;;;;;;5054260;28;20029;-66
2022/10/02 10:26:04;;;;;;;7.88;1.80;;;;;;;;;;5054165;28;20073;-66
2022/10/02 10:28:50;;;;;;;8.25;1.98;;;;;;;;;;5054130;28;20543;-67
2022/10/02 10:31:16;;;;;;;11.35;2.00;;;;;;;;;;5052765;28;20056;-66
2022/10/02 10:33:42;;;;;;;8.20;1.90;;;;;;;;;;5052301;28;20048;-66
2022/10/02 10:39:19;;;;;;;9.32;1.80;;;;;;;;;;5041222;28;20048;-65
2022/10/02 10:42:06;;;;;;;9.95;1.80;;;;;;;;;;5053137;28;20037;-66
2022/10/02 10:44:51;;;;;;;11.55;2.28;;;;;;;;;;5052849;28;20511;-66
2022/10/02 10:47:35;;;;;;;12.32;1.55;;;;;;;;;;5052222;28;20103;-66
2022/10/02 10:50:04;;;;;;;8.50;1.70;;;;;;;;;;5052708;28;20041;-67
2022/10/02 10:52:45;;;;;;;9.88;2.20;;;;;;;;;;5052814;28;20043;-67
2022/10/02 10:55:11;;;;;;;12.90;2.10;;;;;;;;;;5052411;28;20146;-67
2022/10/02 10:57:44;;;;;;;7.88;1.75;;;;;;;;;;5053425;28;20045;-67
2022/10/02 11:00:20;;;;;;;11.60;2.20;;;;;;;;;;5051285;28;20099;-67
2022/10/02 11:02:46;;;;;;;11.25;1.95;;;;;;;;;;5052723;28;20041;-67
2022/10/02 11:05:18;;;;;;;10.32;1.90;;;;;;;;;;5050646;28;20040;-67
2022/10/02 11:07:47;;;;;;;10.60;2.13;;;;;;;;;;5052265;28;20040;-67
2022/10/02 11:10:22;;;;;;;10.32;2.05;;;;;;;;;;5050982;28;20053;-67
2022/10/02 11:13:02;;;;;;;11.10;2.40;;;;;;;;;;5051805;28;20057;-68
2022/10/02 11:15:38;;;;;;;10.98;2.03;;;;;;;;;;5046467;28;20036;-67
2022/10/02 11:18:25;;;;;;;9.38;2.05;;;;;;;;;;5051338;28;20546;-67
2022/10/02 11:20:51;;;;;;;10.50;1.90;;;;;;;;;;5052400;28;20398;-67
2022/10/02 11:23:21;;;;;;;6.93;1.85;;;;;;;;;;5067802;28;20116;-67
2022/10/02 11:25:47;;;;;;;7.65;1.58;;;;;;;;;;5051143;28;20045;-67
2022/10/02 11:28:20;;;;;;;7.47;2.20;;;;;;;;;;5046178;28;20099;-67
2022/10/02 11:31:05;;;;;;;8.40;1.70;;;;;;;;;;5052397;28;20120;-67
2022/10/02 11:33:32;;;;;;;9.65;1.85;;;;;;;;;;5051763;28;20033;-68
2022/10/02 11:36:17;;;;;;;10.25;2.22;;;;;;;;;;5050886;28;20057;-67
2022/10/02 11:38:46;;;;;;;9.20;1.98;;;;;;;;;;5049293;28;20064;-67
2022/10/02 11:41:15;;;;;;;8.40;1.80;;;;;;;;;;5051453;28;20083;-67
2022/10/02 11:44:01;;;;;;;6.68;1.70;;;;;;;;;;5051404;28;20041;-66
2022/10/02 11:46:39;;;;;;;9.15;2.08;;;;;;;;;;5050815;28;20120;-67
2022/10/02 11:49:11;;;;;;;8.45;2.00;;;;;;;;;;5050266;28;20167;-67
2022/10/02 11:51:47;;;;;;;9.52;2.13;;;;;;;;;;5052304;28;20486;-67
2022/10/02 11:54:16;;;;;;;7.38;2.33;;;;;;;;;;5051993;28;20043;-67
2022/10/02 11:56:56;;;;;;;9.77;2.08;;;;;;;;;;5051784;28;20478;-67
2022/10/02 11:59:46;;;;;;;8.73;1.70;;;;;;;;;;5048150;28;20040;-75
2022/10/02 12:02:12;;;;;;;10.27;1.88;;;;;;;;;;5052082;28;20116;-75
2022/10/02 12:04:47;;;;;;;124.07;61.70;;;;;;;;;;5052647;28;20075;-75
2022/10/02 12:07:19;;;;;;;16.98;6.63;;;;;;;;;;5051745;28;20398;-74
2022/10/02 12:09:53;;;;;;;12.80;2.30;;;;;;;;;;5051861;28;20500;-73
2022/10/02 12:12:35;;;;;;;8.57;2.10;;;;;;;;;;5052660;28;20052;-75
2022/10/02 12:15:05;;;;;;;7.68;2.05;;;;;;;;;;5051339;28;20076;-75
2022/10/02 12:17:37;;;;;;;9.05;1.90;;;;;;;;;;5052641;28;20563;-74
2022/10/02 12:29:24;;;;;;;9.02;2.15;;;;;;;;;;5045105;28;20045;-74
2022/10/02 12:32:06;;;;;;;8.68;1.80;;;;;;;;;;5051918;28;20535;-75
2022/10/02 12:34:37;;;;;;;8.30;1.90;;;;;;;;;;5051689;28;20138;-74
2022/10/02 12:37:09;;;;;;;8.20;1.60;;;;;;;;;;5054529;28;20036;-73
2022/10/02 12:39:41;;;;;;;9.40;1.55;;;;;;;;;;5053703;28;20041;-66
2022/10/02 12:42:16;;;;;;;13.52;1.50;;;;;;;;;;5053239;28;20044;-74
2022/10/02 12:44:43;;;;;;;9.90;1.60;;;;;;;;;;5052406;28;20047;-74
2022/10/02 12:47:39;;;;;;;11.07;1.80;;;;;;;;;;5050071;28;20112;-74
2022/10/02 12:50:11;;;;;;;11.50;2.08;;;;;;;;;;5042409;28;20045;-75
2022/10/02 12:52:56;;;;;;;10.82;1.70;;;;;;;;;;5034467;28;20040;-74
2022/10/02 12:55:40;;;;;;;9.25;1.50;;;;;;;;;;5051643;28;20045;-74
2022/10/02 12:58:24;;;;;;;9.10;1.63;;;;;;;;;;5052232;28;20052;-73
2022/10/02 13:00:50;;;;;;;10.68;1.58;;;;;;;;;;5034357;28;20508;-75
2022/10/02 13:03:35;;;;;;;8.55;1.70;;;;;;;;;;5059146;28;20025;-74
2022/10/02 13:06:13;;;;;;;9.20;1.85;;;;;;;;;;5055337;28;20062;-74
2022/10/02 13:08:54;;;;;;;11.43;1.98;;;;;;;;;;5033909;28;20489;-73
2022/10/02 13:11:33;;;;;;;14.48;1.80;;;;;;;;;;5051816;28;20081;-74
2022/10/02 13:13:59;;;;;;;12.85;2.28;;;;;;;;;;5052937;28;20037;-74
2022/10/02 13:16:25;;;;;;;11.35;1.90;;;;;;;;;;5051836;28;20047;-73
2022/10/02 13:19:00;;;;;;;13.00;1.90;;;;;;;;;;5052988;28;20072;-66
2022/10/02 13:21:36;;;;;;;8.57;1.77;;;;;;;;;;5049386;28;20033;-65
2022/10/02 13:24:05;;;;;;;11.82;1.83;;;;;;;;;;5054422;28;20047;-65
2022/10/02 13:26:41;;;;;;;8.48;1.73;;;;;;;;;;5054654;28;20037;-66
2022/10/02 13:29:26;;;;;;;10.02;2.08;;;;;;;;;;5051006;28;20465;-66
2022/10/02 13:32:01;;;;;;;10.13;1.88;;;;;;;;;;5054207;28;20045;-74
2022/10/02 13:34:36;;;;;;;7.45;1.77;;;;;;;;;;5053852;28;20076;-73
2022/10/02 13:37:14;;;;;;;16.88;2.03;;;;;;;;;;5055254;28;20045;-74
2022/10/02 13:39:40;;;;;;;12.68;2.55;;;;;;;;;;5055325;28;20045;-74
2022/10/02 13:42:06;;;;;;;11.48;1.80;;;;;;;;;;5055071;28;20056;-72
2022/10/02 13:44:32;;;;;;;11.32;1.80;;;;;;;;;;5055552;28;20036;-73
2022/10/02 13:46:58;;;;;;;11.00;2.10;;;;;;;;;;5054249;28;20493;-74
2022/10/02 13:49:43;;;;;;;10.30;1.90;;;;;;;;;;5061206;28;20086;-73
2022/10/02 13:52:09;;;;;;;10.27;1.77;;;;;;;;;;5060705;28;20102;-74
2022/10/02 13:54:38;;;;;;;12.38;2.13;;;;;;;;;;5054342;28;20490;-73
2022/10/02 13:57:14;;;;;;;12.50;2.28;;;;;;;;;;5055504;28;20536;-73
2022/10/02 13:59:43;;;;;;;11.20;2.55;;;;;;;;;;5055165;28;20466;-74
2022/10/02 14:02:12;;;;;;;15.27;1.65;;;;;;;;;;5055181;28;20041;-73
2022/10/02 14:04:56;;;;;;;12.82;2.13;;;;;;;;;;5053161;28;20102;-73
2022/10/02 14:07:37;;;;;;;11.10;1.75;;;;;;;;;;5053614;28;20048;-74
2022/10/02 14:10:09;;;;;;;10.43;2.30;;;;;;;;;;5052102;28;20088;-73
2022/10/02 14:12:45;;;;;;;9.27;2.10;;;;;;;;;;5054688;28;20405;-73
2022/10/02 14:15:30;;;;;;;10.48;1.80;;;;;;;;;;5055076;28;20037;-73
2022/10/02 14:18:15;;;;;;;10.25;1.67;;;;;;;;;;5053625;28;20045;-74
2022/10/02 14:20:44;;;;;;;11.75;1.88;;;;;;;;;;5051746;28;20044;-73
2022/10/02 14:23:19;;;;;;;14.43;2.22;;;;;;;;;;5054430;28;20101;-74
2022/10/02 14:26:06;;;;;;;11.27;1.90;;;;;;;;;;5054559;28;20033;-73
2022/10/02 14:28:51;;;;;;;9.50;1.83;;;;;;;;;;5048474;28;20040;-73
2022/10/02 14:31:20;;;;;;;13.13;1.63;;;;;;;;;;5051103;28;20053;-73
2022/10/02 14:34:01;;;;;;;9.18;2.00;;;;;;;;;;5054050;28;20044;-73
2022/10/02 14:36:39;;;;;;;11.75;2.00;;;;;;;;;;5052945;28;20497;-73
2022/10/02 14:39:08;;;;;;;12.27;1.80;;;;;;;;;;5054350;28;20041;-73
2022/10/02 14:41:40;;;;;;;12.00;1.80;;;;;;;;;;5052900;28;20551;-73
2022/10/02 14:44:27;;;;;;;12.50;2.00;;;;;;;;;;5041336;28;20033;-73
2022/10/02 14:46:59;;;;;;;9.43;1.48;;;;;;;;;;5052738;28;20181;-73
2022/10/02 14:49:37;;;;;;;10.55;1.58;;;;;;;;;;5054099;28;20509;-73
2022/10/02 14:52:13;;;;;;;14.55;2.42;;;;;;;;;;5052822;28;20431;-73
2022/10/02 14:54:57;;;;;;;10.63;1.80;;;;;;;;;;5043291;28;20397;-73
2022/10/02 14:57:23;;;;;;;16.10;2.95;;;;;;;;;;5053157;28;20553;-73
2022/10/02 14:59:52;;;;;;;11.43;2.08;;;;;;;;;;5053466;28;20076;-73
2022/10/02 15:02:33;;;;;;;10.93;2.08;;;;;;;;;;5053050;28;20044;-73
2022/10/02 15:04:59;;;;;;;12.88;1.80;;;;;;;;;;5040784;28;20501;-73
2022/10/02 15:07:27;;;;;;;9.65;2.00;;;;;;;;;;5053798;28;20064;-73
2022/10/02 15:09:57;;;;;;;11.52;1.75;;;;;;;;;;5053071;28;20140;-73
2022/10/02 15:12:30;;;;;;;9.00;2.03;;;;;;;;;;5053293;28;20494;-73
2022/10/02 15:15:07;;;;;;;16.83;2.53;;;;;;;;;;5052571;28;21228;-73
2022/10/02 15:17:55;;;;;;;10.77;1.92;;;;;;;;;;5045363;28;20394;-73
2022/10/02 15:20:30;;;;;;;10.82;1.38;;;;;;;;;;5041349;28;20052;-73
2022/10/02 15:22:58;;;;;;;11.70;1.65;;;;;;;;;;5053249;28;20044;-73
2022/10/02 15:25:31;;;;;;;9.57;1.58;;;;;;;;;;5051681;28;20037;-73
2022/10/02 15:28:00;;;;;;;8.00;1.50;;;;;;;;;;5047109;28;20041;-73